Catlettsburg, KY (41129)

04:59 AM EST on Φεβρουάριος 28, 2017 (GMT -0500)
Riverview Condo | | Change Station

Elev 550 ft 38.42 °N, 82.59 °W | Updated 49 seconds ago

Clear
Αίθριος
37.8 ° F
Feels Like 38 ° F
N
2.7
Ανεμος Μεταβλητός Ανεμος from Νότιος

Σήμερα
High -- | Low -- ° F
--% Chance of Precip.
Yesterday
High -- | Low -- ° F
Precip. -- in
Ατμοσφαιρική Πίεση 30.16 in
Ορατότητα 10.0 Μίλια
Σύννεφα Αίθριος
Δείκτης Ψυχρότητας 38 ° F
Σημείο Δρόσου 38 ° F
Υγρασία 99%
Rainfall 0.00 in
Snow Depth Not available.
7:03 AM 6:22 PM
Μηνίσκος, 4% visible
METAR KHTS 280951Z 07004KT 10SM CLR 02/01 A3015 RMK AO2 SLP211 T00220011
Ατμοσφαιρική Πίεση 30.16 in
Ορατότητα 10.0 Μίλια
Σύννεφα Αίθριος
Δείκτης Ψυχρότητας 38 ° F
Σημείο Δρόσου 38 ° F
Υγρασία 99%
Rainfall 0.00 in
Snow Depth Not available.
7:03 AM 6:22 PM
Μηνίσκος, 4% visible
METAR KHTS 280951Z 07004KT 10SM CLR 02/01 A3015 RMK AO2 SLP211 T00220011

Get Your Daily Forecast Email!

Thanks for signing up!

Be on the lookout for a verification email in your inbox.

You'll start receiving the daily forecast at 8 AM.

×

10-Day Weather Forecast

Almanac

Αστρονομία

Feb. 28, 2017 Rise Set
Actual Time
Civil Twilight
Nautical Twilight
Astronomical Twilight
Moon
Length Of Visible Light
Διάρκεια ημέρας
Tomorrow will be .
, % of the Moon is Illuminated

Today's Extremes

State Highs State Lows

Community

WunderPhotos

Upload Photos

1,962,540 photos uploaded!

WunderBlog® & News

Nearby

Air Quality

  Air Quality AQ Index Pollutant
Not available.

Snow Depth

Station Depth Elevation

Earthquake Activity

City Distance Mag. Time & Date
Minimum magnitude displayed is 2.5.

Coastal Water Temperatures

Τοποθεσία Θερμοκρασία

Stations

Nearby Weather Stations

Station Location Temp Δείκτης Ψυχρότητας Σημείο Δρόσου Υγρασία Ανεμος Precip. Elev Ενημερώθηκε Type
                   

Watches & Warnings

There are currently no watches in effect.